Time;durP1;ratioP1;P1;durP2;ratioP2;P2;SDS_P1;SDS_P2;PMS_P1;PMS_P2;Temp;Humidity;BMP_temperature;BMP_pressure;BME280_temperature;BME280_humidity;BME280_pressure;Samples;Min_cycle;Max_cycle;Signal;HPM_P1;HPM_P2
2022/03/13 19:22:44;;;;;;;4.57;3.17;;;;;;;;;;5271298;22;20864;-75
2022/03/13 19:25:12;;;;;;;3.60;3.17;;;;;;;;;;5001784;28;20443;-76
2022/03/13 19:27:39;;;;;;;2.83;2.63;;;;;;;;;;5007442;28;20496;-77
2022/03/13 19:30:09;;;;;;;3.20;2.90;;;;;;;;;;5008458;28;20443;-80
2022/03/13 19:32:36;;;;;;;3.30;3.00;;;;;;;;;;5006900;28;20556;-73
2022/03/13 19:35:03;;;;;;;3.43;3.13;;;;;;;;;;4977883;28;20451;-75
2022/03/13 19:37:31;;;;;;;4.60;3.60;;;;;;;;;;4992821;28;20433;-75
2022/03/13 19:40:03;;;;;;;5.47;3.60;;;;;;;;;;4987112;28;20448;-76
2022/03/13 19:42:30;;;;;;;3.33;3.03;;;;;;;;;;4986944;28;20561;-77
2022/03/13 19:44:57;;;;;;;3.60;3.30;;;;;;;;;;4987065;28;21058;-80
2022/03/13 19:47:29;;;;;;;3.33;2.93;;;;;;;;;;4986503;28;20505;-74
2022/03/13 19:49:57;;;;;;;5.70;2.93;;;;;;;;;;4991602;28;20550;-77
2022/03/13 19:52:24;;;;;;;4.47;3.30;;;;;;;;;;5008022;28;20884;-77
2022/03/13 19:54:51;;;;;;;3.27;2.67;;;;;;;;;;5008358;28;20484;-78
2022/03/13 19:57:20;;;;;;;4.27;2.83;;;;;;;;;;4996244;28;20455;-76
2022/03/13 19:59:47;;;;;;;2.27;2.07;;;;;;;;;;4992880;28;20472;-77
2022/03/13 20:02:15;;;;;;;3.20;2.20;;;;;;;;;;5005216;28;20525;-72
2022/03/13 20:04:44;;;;;;;2.30;2.10;;;;;;;;;;5005954;28;21032;-77
2022/03/13 20:07:12;;;;;;;2.83;2.23;;;;;;;;;;5005970;28;20741;-77
2022/03/13 20:09:39;;;;;;;2.40;2.20;;;;;;;;;;5006884;28;20454;-75
2022/03/13 20:12:12;;;;;;;2.63;2.07;;;;;;;;;;4983185;28;20825;-80
2022/03/13 20:14:43;;;;;;;4.53;2.40;;;;;;;;;;4988148;28;20447;-75
2022/03/13 20:17:10;;;;;;;2.83;2.60;;;;;;;;;;4988464;28;20435;-75
2022/03/13 20:19:39;;;;;;;2.50;2.30;;;;;;;;;;4991724;28;20487;-76
2022/03/13 20:22:06;;;;;;;3.17;2.20;;;;;;;;;;4995612;28;20474;-77
2022/03/13 20:24:33;;;;;;;2.23;2.03;;;;;;;;;;5008222;28;20947;-78
2022/03/13 20:27:00;;;;;;;3.07;2.17;;;;;;;;;;5011256;28;20998;-79
2022/03/13 20:29:28;;;;;;;2.60;2.13;;;;;;;;;;5012803;28;20446;-78
2022/03/13 20:31:57;;;;;;;4.07;2.67;;;;;;;;;;5012557;28;20494;-78
2022/03/13 20:34:24;;;;;;;2.50;2.30;;;;;;;;;;5010572;28;21155;-75
2022/03/13 20:36:52;;;;;;;2.20;2.00;;;;;;;;;;4980364;28;20439;-76
2022/03/13 20:39:20;;;;;;;2.33;2.00;;;;;;;;;;4998488;28;20795;-77
2022/03/13 20:41:48;;;;;;;2.27;2.07;;;;;;;;;;4992742;28;20460;-73
2022/03/13 20:44:16;;;;;;;2.63;1.90;;;;;;;;;;4992988;28;20442;-77
2022/03/13 20:46:43;;;;;;;2.40;2.10;;;;;;;;;;4976384;28;20442;-80
2022/03/13 20:49:14;;;;;;;2.70;2.47;;;;;;;;;;4993558;28;20815;-75
2022/03/13 20:51:43;;;;;;;3.10;2.23;;;;;;;;;;4994089;28;20534;-78
2022/03/13 20:54:10;;;;;;;2.17;1.93;;;;;;;;;;4995263;28;20443;-78
2022/03/13 20:56:39;;;;;;;2.50;2.30;;;;;;;;;;4996343;28;20538;-75
2022/03/13 20:59:09;;;;;;;2.07;1.90;;;;;;;;;;4982947;28;20451;-74
2022/03/13 21:01:36;;;;;;;2.70;2.23;;;;;;;;;;4997564;28;20947;-74
2022/03/13 21:04:04;;;;;;;2.03;1.90;;;;;;;;;;4992610;28;20447;-76
2022/03/13 21:06:32;;;;;;;2.23;2.03;;;;;;;;;;4992634;28;20454;-75
2022/03/13 21:08:59;;;;;;;2.30;2.07;;;;;;;;;;4993078;28;20573;-77
2022/03/13 21:11:39;;;;;;;2.00;1.80;;;;;;;;;;4992849;28;20440;-78
2022/03/13 21:14:09;;;;;;;2.77;2.00;;;;;;;;;;5005991;28;20853;-79
2022/03/13 21:16:37;;;;;;;4.30;1.90;;;;;;;;;;4997433;28;20443;-75
2022/03/13 21:19:04;;;;;;;2.20;2.00;;;;;;;;;;5011729;28;20443;-73
2022/03/13 21:21:33;;;;;;;3.07;2.40;;;;;;;;;;4998775;28;20435;-74
2022/03/13 21:24:00;;;;;;;2.00;1.80;;;;;;;;;;4997032;28;20466;-74
2022/03/13 21:26:27;;;;;;;2.73;2.40;;;;;;;;;;4992472;28;20451;-74
2022/03/13 21:28:54;;;;;;;2.27;1.80;;;;;;;;;;4992559;28;20483;-74
2022/03/13 21:31:22;;;;;;;2.43;2.13;;;;;;;;;;4993192;28;20435;-74
2022/03/13 21:33:49;;;;;;;2.50;2.27;;;;;;;;;;4992849;28;20468;-75
2022/03/13 21:36:16;;;;;;;2.27;1.97;;;;;;;;;;4993296;28;20949;-75
2022/03/13 21:38:45;;;;;;;2.80;2.10;;;;;;;;;;4994756;28;20451;-73
2022/03/13 21:41:12;;;;;;;2.40;2.20;;;;;;;;;;4995477;28;20436;-74
2022/03/13 21:43:39;;;;;;;2.30;2.10;;;;;;;;;;4998678;28;20815;-73
2022/03/13 21:46:06;;;;;;;2.30;2.07;;;;;;;;;;5001944;28;20427;-75
2022/03/13 21:48:34;;;;;;;2.70;2.30;;;;;;;;;;5011698;28;20486;-74
2022/03/13 21:51:01;;;;;;;2.37;1.83;;;;;;;;;;5011530;28;20447;-73
2022/03/13 21:53:28;;;;;;;2.83;2.13;;;;;;;;;;5012200;28;20455;-72
2022/03/13 21:55:57;;;;;;;3.13;2.07;;;;;;;;;;5012063;28;20928;-70
2022/03/13 21:58:24;;;;;;;2.83;2.07;;;;;;;;;;5012313;28;20463;-75
2022/03/13 22:00:51;;;;;;;2.23;2.00;;;;;;;;;;5013620;28;20439;-73
2022/03/13 22:03:18;;;;;;;2.30;2.10;;;;;;;;;;5009968;28;20467;-72
2022/03/13 22:05:46;;;;;;;2.40;2.20;;;;;;;;;;4998475;28;20432;-75
2022/03/13 22:08:13;;;;;;;2.33;2.03;;;;;;;;;;5001558;28;20998;-73
2022/03/13 22:10:41;;;;;;;2.40;2.13;;;;;;;;;;5011570;28;20474;-73
2022/03/13 22:13:11;;;;;;;2.30;2.10;;;;;;;;;;5011173;28;20455;-74
2022/03/13 22:15:39;;;;;;;2.30;2.10;;;;;;;;;;5012044;28;20920;-74
2022/03/13 22:18:08;;;;;;;2.90;1.80;;;;;;;;;;5011332;28;20447;-72
2022/03/13 22:20:35;;;;;;;2.17;1.87;;;;;;;;;;5012092;28;20455;-74
2022/03/13 22:23:04;;;;;;;3.23;2.70;;;;;;;;;;5012978;28;20529;-74
2022/03/13 22:25:32;;;;;;;2.20;2.00;;;;;;;;;;5008637;28;20990;-74
2022/03/13 22:27:59;;;;;;;2.60;2.17;;;;;;;;;;4998121;28;20474;-76
2022/03/13 22:30:28;;;;;;;2.53;2.00;;;;;;;;;;5002139;28;20928;-73
2022/03/13 22:32:55;;;;;;;3.03;2.10;;;;;;;;;;5010792;28;20463;-73
2022/03/13 22:35:23;;;;;;;2.60;2.40;;;;;;;;;;5010927;28;20954;-72
2022/03/13 22:37:53;;;;;;;2.10;1.90;;;;;;;;;;4993896;28;20442;-74
2022/03/13 22:40:20;;;;;;;2.00;1.77;;;;;;;;;;5011111;28;20446;-74
2022/03/13 22:42:47;;;;;;;2.30;2.10;;;;;;;;;;4994172;28;20549;-73
2022/03/13 22:45:15;;;;;;;2.83;2.60;;;;;;;;;;5012879;28;20466;-75
2022/03/13 22:47:43;;;;;;;2.83;2.23;;;;;;;;;;5007455;28;22083;-74
2022/03/13 22:50:12;;;;;;;2.93;2.63;;;;;;;;;;4980130;28;20436;-72
2022/03/13 22:52:40;;;;;;;3.60;2.50;;;;;;;;;;4994446;28;20841;-73
2022/03/13 22:55:09;;;;;;;3.80;3.40;;;;;;;;;;4990884;28;20919;-72
2022/03/13 22:57:36;;;;;;;4.00;3.10;;;;;;;;;;4990078;28;20557;-73
2022/03/13 23:00:05;;;;;;;2.90;2.60;;;;;;;;;;4990333;28;20444;-73
2022/03/13 23:02:33;;;;;;;3.57;3.27;;;;;;;;;;4973297;28;20482;-72
2022/03/13 23:05:01;;;;;;;3.70;2.90;;;;;;;;;;4991261;28;20802;-72
2022/03/13 23:07:29;;;;;;;3.47;3.10;;;;;;;;;;4996518;28;20435;-73
2022/03/13 23:09:57;;;;;;;3.87;2.80;;;;;;;;;;4980428;28;20435;-73
2022/03/13 23:12:24;;;;;;;4.50;3.13;;;;;;;;;;5010458;28;20470;-71
2022/03/13 23:14:52;;;;;;;3.27;2.97;;;;;;;;;;4993137;28;20449;-72
2022/03/13 23:17:19;;;;;;;3.20;2.87;;;;;;;;;;4993010;28;20541;-71
2022/03/13 23:19:47;;;;;;;3.80;2.70;;;;;;;;;;5010576;28;20818;-72
2022/03/13 23:22:16;;;;;;;3.20;2.90;;;;;;;;;;5010450;28;20487;-72
2022/03/13 23:24:44;;;;;;;3.00;2.70;;;;;;;;;;5012263;28;20458;-73
2022/03/13 23:27:11;;;;;;;3.60;3.20;;;;;;;;;;4994818;28;20916;-72
2022/03/13 23:29:39;;;;;;;3.37;3.07;;;;;;;;;;4995885;28;20471;-72
2022/03/13 23:32:06;;;;;;;2.80;2.50;;;;;;;;;;4998081;28;20483;-75
2022/03/13 23:34:36;;;;;;;3.20;2.83;;;;;;;;;;5009292;28;20442;-73
2022/03/13 23:37:05;;;;;;;3.00;2.77;;;;;;;;;;5009378;28;20549;-74
2022/03/13 23:39:34;;;;;;;2.73;2.53;;;;;;;;;;5010145;28;20782;-75
2022/03/13 23:42:01;;;;;;;3.47;2.90;;;;;;;;;;4991692;28;20470;-72
2022/03/13 23:44:29;;;;;;;3.00;2.70;;;;;;;;;;5010395;28;20815;-73
2022/03/13 23:46:57;;;;;;;2.83;2.60;;;;;;;;;;4994853;28;20466;-74
2022/03/13 23:49:25;;;;;;;3.40;2.70;;;;;;;;;;5011482;28;21077;-72
2022/03/13 23:51:52;;;;;;;3.27;2.70;;;;;;;;;;4996124;28;20464;-73
2022/03/13 23:54:19;;;;;;;4.20;3.57;;;;;;;;;;4997183;28;20439;-73
2022/03/13 23:56:48;;;;;;;4.47;3.17;;;;;;;;;;5008426;28;20546;-72
2022/03/13 23:59:15;;;;;;;3.20;2.90;;;;;;;;;;5009377;28;20455;-73
